createdAt,value
2022-11-24T00:00:31.480Z,13.85
2022-11-24T00:02:58.320Z,8.85
2022-11-24T00:05:25.101Z,14.45
2022-11-24T00:07:51.872Z,15.75
2022-11-24T00:10:18.719Z,14.50
2022-11-24T00:12:45.392Z,13.60
2022-11-24T00:15:12.087Z,12.63
2022-11-24T00:17:38.747Z,11.18
2022-11-24T00:20:06.101Z,11.75
2022-11-24T00:24:59.391Z,11.55
2022-11-24T00:27:26.091Z,12.88
2022-11-24T00:29:52.920Z,12.05
2022-11-24T00:32:19.623Z,11.45
2022-11-24T00:34:47.265Z,16.15
2022-11-24T00:37:13.920Z,15.13
2022-11-24T00:39:40.600Z,16.58
2022-11-24T00:42:07.401Z,12.45
2022-11-24T00:44:34.307Z,14.98
2022-11-24T00:47:01.221Z,15.88
2022-11-24T00:49:27.939Z,15.13
2022-11-24T00:51:54.635Z,16.58
2022-11-24T00:54:21.472Z,14.73
2022-11-24T00:56:48.155Z,13.05
2022-11-24T00:59:14.978Z,15.85
2022-11-24T01:01:42.666Z,14.65
2022-11-24T01:04:09.505Z,14.77
2022-11-24T01:06:36.676Z,15.30
2022-11-24T01:09:04.239Z,16.02
2022-11-24T01:11:53.400Z,20.48
2022-11-24T01:14:24.187Z,14.90
2022-11-24T01:16:51.349Z,16.02
2022-11-24T01:19:18.712Z,14.35
2022-11-24T01:24:12.526Z,16.05
2022-11-24T01:26:39.858Z,14.48
2022-11-24T01:31:33.210Z,14.18
2022-11-24T01:33:59.875Z,12.30
2022-11-24T01:36:26.577Z,14.77
2022-11-24T01:38:53.267Z,14.48
2022-11-24T01:41:25.505Z,12.13
2022-11-24T01:43:53.607Z,14.68
2022-11-24T01:46:36.212Z,14.77
2022-11-24T01:49:08.940Z,12.10
2022-11-24T01:51:43.508Z,12.38
2022-11-24T01:54:19.917Z,16.00
2022-11-24T01:56:51.456Z,14.70
2022-11-24T01:59:20.975Z,14.07
2022-11-24T02:01:50.288Z,14.52
2022-11-24T02:04:23.803Z,13.27
2022-11-24T02:06:52.081Z,15.02
2022-11-24T02:09:45.534Z,15.05
2022-11-24T02:12:12.638Z,15.07
2022-11-24T02:14:41.844Z,12.32
2022-11-24T02:17:08.645Z,11.85
2022-11-24T02:19:41.377Z,8.25
2022-11-24T02:22:15.858Z,11.98
2022-11-24T02:24:54.648Z,12.75
2022-11-24T02:27:21.340Z,12.55
2022-11-24T02:29:49.072Z,13.77
2022-11-24T02:32:16.290Z,13.45
2022-11-24T02:34:42.936Z,13.02
2022-11-24T02:37:09.751Z,13.43
2022-11-24T02:39:36.421Z,12.80
2022-11-24T02:42:12.922Z,13.77
2022-11-24T02:44:45.237Z,11.32
2022-11-24T02:47:13.090Z,11.77
2022-11-24T02:49:40.552Z,14.63
2022-11-24T02:54:34.346Z,12.52
2022-11-24T02:57:01.419Z,13.13
2022-11-24T02:59:28.341Z,12.85
2022-11-24T03:01:55.067Z,12.35
2022-11-24T03:04:21.776Z,13.75
2022-11-24T03:06:48.885Z,10.13
2022-11-24T03:09:15.605Z,15.38
2022-11-24T03:11:42.363Z,10.23
2022-11-24T03:14:09.289Z,14.05
2022-11-24T03:16:35.954Z,16.95
2022-11-24T03:19:03.305Z,15.63
2022-11-24T03:23:56.719Z,15.85
2022-11-24T03:26:25.357Z,12.88
2022-11-24T03:28:55.413Z,13.70
2022-11-24T03:31:23.449Z,12.45
2022-11-24T03:33:50.208Z,15.55
2022-11-24T03:36:17.158Z,11.25
2022-11-24T03:38:44.480Z,15.60
2022-11-24T03:41:11.263Z,15.48
2022-11-24T03:43:43.240Z,13.38
2022-11-24T03:46:11.395Z,13.30
2022-11-24T03:48:38.267Z,16.35
2022-11-24T03:51:05.112Z,15.70
2022-11-24T03:53:33.505Z,15.60
2022-11-24T03:56:01.896Z,18.33
2022-11-24T03:58:29.253Z,18.00
2022-11-24T04:03:23.656Z,14.13
2022-11-24T04:08:17.460Z,12.32
2022-11-24T04:10:44.320Z,10.77
2022-11-24T04:13:14.226Z,11.85
2022-11-24T04:15:42.289Z,11.07
2022-11-24T04:18:10.300Z,10.52
2022-11-24T04:20:37.188Z,12.52
2022-11-24T04:23:03.991Z,11.88
2022-11-24T04:25:30.667Z,9.85
2022-11-24T04:27:57.547Z,10.55
2022-11-24T04:30:26.277Z,7.88
2022-11-24T04:32:53.677Z,8.57
2022-11-24T04:37:49.291Z,11.13
2022-11-24T04:40:16.370Z,9.77
2022-11-24T04:42:43.015Z,11.02
2022-11-24T04:45:11.340Z,13.45
2022-11-24T04:47:38.347Z,11.48
2022-11-24T04:50:07.615Z,9.48
2022-11-24T04:52:34.347Z,9.65
2022-11-24T04:55:01.428Z,11.52
2022-11-24T04:57:28.261Z,12.57
2022-11-24T04:59:55.397Z,20.90
2022-11-24T05:02:23.114Z,15.35
2022-11-24T05:04:50.007Z,10.35
2022-11-24T05:07:19.357Z,9.15
2022-11-24T05:10:05.803Z,11.25
2022-11-24T05:12:32.521Z,12.32
2022-11-24T05:15:03.954Z,7.50
2022-11-24T05:17:32.358Z,10.63
2022-11-24T05:19:59.515Z,10.63
2022-11-24T05:22:28.031Z,7.10
2022-11-24T05:24:54.717Z,9.60
2022-11-24T05:27:21.632Z,8.90
2022-11-24T05:29:48.320Z,10.30
2022-11-24T05:32:15.102Z,7.47
2022-11-24T05:34:41.776Z,8.43
2022-11-24T05:37:08.915Z,6.00
2022-11-24T05:39:36.599Z,8.05
2022-11-24T05:42:25.160Z,9.65
2022-11-24T05:44:52.374Z,7.88
2022-11-24T05:47:19.524Z,9.30
2022-11-24T05:49:46.395Z,9.95
2022-11-24T05:52:13.453Z,9.50
2022-11-24T05:54:40.202Z,10.70
2022-11-24T05:57:06.999Z,13.48
2022-11-24T05:59:33.837Z,9.02
2022-11-24T06:02:00.812Z,11.93
2022-11-24T06:04:27.752Z,8.82
2022-11-24T06:06:54.520Z,8.63
2022-11-24T06:09:21.275Z,6.22
2022-11-24T06:11:48.749Z,14.32
2022-11-24T06:14:15.661Z,14.30
2022-11-24T06:16:42.422Z,9.48
2022-11-24T06:19:10.884Z,8.50
2022-11-24T06:21:37.809Z,8.77
2022-11-24T06:24:05.288Z,12.05
2022-11-24T06:26:32.073Z,12.25
2022-11-24T06:28:58.944Z,13.55
2022-11-24T06:31:25.741Z,16.02
2022-11-24T06:33:53.171Z,15.55
2022-11-24T06:38:46.515Z,14.50
2022-11-24T06:41:15.515Z,13.23
2022-11-24T06:43:42.241Z,13.82
2022-11-24T06:46:09.024Z,8.02
2022-11-24T06:48:36.292Z,8.55
2022-11-24T06:51:05.442Z,9.98
2022-11-24T06:53:39.978Z,8.73
2022-11-24T06:56:16.365Z,15.52
2022-11-24T06:58:48.873Z,20.60
2022-11-24T07:01:17.709Z,19.35
2022-11-24T07:03:45.149Z,17.77
2022-11-24T07:08:38.664Z,18.48
2022-11-24T07:11:10.236Z,19.15
2022-11-24T07:13:37.046Z,16.60
2022-11-24T07:16:15.254Z,10.38
2022-11-24T07:18:43.891Z,22.42
2022-11-24T07:21:11.005Z,25.20
2022-11-24T07:23:38.296Z,25.38
2022-11-24T07:26:07.092Z,26.52
2022-11-24T07:28:34.717Z,24.20
2022-11-24T07:33:42.186Z,38.83
2022-11-24T07:36:09.456Z,26.45
2022-11-24T07:38:36.187Z,26.52
2022-11-24T07:41:05.567Z,16.88
2022-11-24T07:43:33.417Z,28.35
2022-11-24T07:46:00.605Z,20.70
2022-11-24T07:48:27.738Z,28.95
2022-11-24T07:50:56.255Z,23.90
2022-11-24T07:53:23.209Z,22.63
2022-11-24T07:55:54.645Z,19.02
2022-11-24T07:58:21.897Z,19.75
2022-11-24T08:00:48.865Z,18.58
2022-11-24T08:03:15.967Z,18.52
2022-11-24T08:06:07.704Z,23.33
2022-11-24T08:08:33.266Z,22.27
2022-11-24T08:11:04.939Z,19.08
2022-11-24T08:13:31.644Z,17.60
2022-11-24T08:15:58.306Z,16.30
2022-11-24T08:18:25.179Z,24.98
2022-11-24T08:20:52.645Z,23.55
2022-11-24T08:23:19.354Z,20.50
2022-11-24T08:25:46.048Z,20.42
2022-11-24T08:28:12.701Z,21.50
2022-11-24T08:30:39.395Z,21.85
2022-11-24T08:33:06.062Z,20.13
2022-11-24T08:35:36.886Z,19.30
2022-11-24T08:38:05.006Z,24.40
2022-11-24T08:40:32.490Z,23.73
2022-11-24T08:45:30.521Z,19.17
2022-11-24T08:47:58.058Z,19.52
2022-11-24T08:50:25.497Z,16.17
2022-11-24T08:55:20.493Z,15.50
2022-11-24T08:57:47.219Z,15.63
2022-11-24T09:00:14.408Z,18.63
2022-11-24T09:02:42.823Z,14.55
2022-11-24T09:05:28.759Z,17.58
2022-11-24T09:07:56.240Z,16.70
2022-11-24T09:10:22.976Z,21.70
2022-11-24T09:12:51.176Z,16.80
2022-11-24T09:15:20.116Z,16.45
2022-11-24T09:17:46.759Z,13.25
2022-11-24T09:20:13.450Z,11.57
2022-11-24T09:22:41.642Z,14.20
2022-11-24T09:25:09.032Z,12.60
2022-11-24T09:30:03.777Z,11.30
2022-11-24T09:32:30.776Z,13.00
2022-11-24T09:34:57.595Z,12.18
2022-11-24T09:37:28.129Z,15.57
2022-11-24T09:39:56.342Z,18.15
2022-11-24T09:43:02.592Z,17.10
2022-11-24T09:46:09.386Z,16.40
2022-11-24T09:48:46.302Z,24.50
2022-11-24T09:51:14.978Z,13.73
2022-11-24T09:53:51.828Z,13.70
2022-11-24T09:56:22.427Z,13.85
2022-11-24T09:59:13.274Z,13.98
2022-11-24T10:01:42.655Z,17.70
2022-11-24T10:04:22.597Z,15.25
2022-11-24T10:07:08.655Z,20.38
2022-11-24T10:10:09.786Z,21.33
2022-11-24T10:13:01.408Z,16.48
2022-11-24T10:16:07.772Z,14.90
2022-11-24T10:18:37.574Z,16.60
2022-11-24T10:21:17.928Z,15.38
2022-11-24T10:24:08.901Z,17.02
2022-11-24T10:26:36.722Z,18.02
2022-11-24T10:29:21.348Z,18.60
2022-11-24T10:31:50.746Z,13.80
2022-11-24T10:34:29.918Z,15.85
2022-11-24T10:37:11.830Z,15.20
2022-11-24T10:39:59.907Z,16.65
2022-11-24T10:45:12.712Z,14.15
2022-11-24T10:47:40.554Z,23.98
2022-11-24T10:50:27.005Z,17.27
2022-11-24T10:53:07.120Z,13.77
2022-11-24T10:55:58.599Z,15.13
2022-11-24T10:58:27.005Z,18.52
2022-11-24T11:00:55.576Z,16.92
2022-11-24T11:03:25.210Z,13.20
2022-11-24T11:06:11.371Z,15.70
2022-11-24T11:08:38.534Z,17.65
2022-11-24T11:11:22.193Z,20.40
2022-11-24T11:14:01.509Z,16.48
2022-11-24T11:16:40.986Z,17.60
2022-11-24T11:19:54.104Z,14.23
2022-11-24T11:22:31.605Z,13.00
2022-11-24T11:25:43.560Z,15.20
2022-11-24T11:28:27.727Z,16.15
2022-11-24T11:31:20.991Z,15.13
2022-11-24T11:34:07.320Z,12.57
2022-11-24T11:36:51.236Z,12.88
2022-11-24T11:39:26.532Z,12.20
2022-11-24T11:42:38.028Z,15.60
2022-11-24T11:45:18.367Z,14.32
2022-11-24T11:48:05.444Z,12.75
2022-11-24T11:54:26.783Z,18.85
2022-11-24T11:57:07.950Z,16.27
2022-11-24T11:59:34.592Z,18.38
2022-11-24T12:02:38.165Z,17.33
2022-11-24T12:05:42.935Z,17.85
2022-11-24T12:08:55.904Z,20.65
2022-11-24T12:11:35.152Z,16.10
2022-11-24T12:14:01.767Z,20.58
2022-11-24T12:16:45.398Z,19.13
2022-11-24T12:19:29.271Z,19.48
2022-11-24T12:22:21.714Z,20.30
2022-11-24T12:25:02.478Z,19.17
2022-11-24T12:28:00.926Z,23.90
2022-11-24T12:30:37.877Z,17.85
2022-11-24T12:33:29.231Z,17.98
2022-11-24T12:36:23.852Z,21.35
2022-11-24T12:39:06.499Z,18.10
2022-11-24T12:42:09.697Z,17.40
2022-11-24T12:45:13.189Z,21.50
2022-11-24T12:48:03.621Z,22.88
2022-11-24T12:50:33.032Z,24.20
2022-11-24T12:53:05.636Z,22.55
2022-11-24T12:55:33.984Z,20.23
2022-11-24T12:58:13.537Z,25.92
2022-11-24T13:00:52.805Z,22.20
2022-11-24T13:03:22.236Z,25.20
2022-11-24T13:06:18.168Z,25.02
2022-11-24T13:08:45.453Z,24.02
2022-11-24T13:13:59.823Z,21.58
2022-11-24T13:16:36.089Z,16.38
2022-11-24T13:19:14.691Z,17.77
2022-11-24T13:21:45.428Z,12.63
2022-11-24T13:24:19.331Z,13.98
2022-11-24T13:26:49.829Z,22.05
2022-11-24T13:29:33.295Z,15.45
2022-11-24T13:32:02.796Z,19.40
2022-11-24T13:34:45.583Z,14.65
2022-11-24T13:37:34.948Z,15.57
2022-11-24T13:40:22.444Z,17.70
2022-11-24T13:42:54.910Z,17.83
2022-11-24T13:45:45.143Z,16.48
2022-11-24T13:48:21.647Z,17.60
2022-11-24T13:50:53.113Z,16.17
2022-11-24T13:53:38.337Z,16.25
2022-11-24T13:56:25.204Z,17.10
2022-11-24T13:59:00.459Z,16.88
2022-11-24T14:01:36.596Z,15.27
2022-11-24T14:04:31.403Z,17.45
2022-11-24T14:07:07.299Z,16.70
2022-11-24T14:09:47.110Z,27.10
2022-11-24T14:12:24.552Z,21.02
2022-11-24T14:14:55.590Z,16.45
2022-11-24T14:17:31.349Z,15.05
2022-11-24T14:19:58.559Z,12.50
2022-11-24T14:22:36.596Z,15.25
2022-11-24T14:27:37.503Z,15.75
2022-11-24T14:30:25.068Z,16.23
2022-11-24T14:32:55.860Z,12.85
2022-11-24T14:35:36.132Z,16.00
2022-11-24T14:38:05.214Z,17.15
2022-11-24T14:40:50.387Z,19.45
2022-11-24T14:43:35.242Z,25.67
2022-11-24T14:46:12.187Z,20.10
2022-11-24T14:48:47.445Z,23.45
2022-11-24T14:51:24.639Z,20.00
2022-11-24T14:53:53.545Z,28.35
2022-11-24T14:56:40.424Z,28.85
2022-11-24T14:59:25.890Z,25.10
2022-11-24T15:01:52.792Z,19.92
2022-11-24T15:05:00.842Z,14.50
2022-11-24T15:07:27.261Z,18.60
2022-11-24T15:09:57.883Z,22.80
2022-11-24T15:12:34.734Z,16.17
2022-11-24T15:15:05.644Z,17.00
2022-11-24T15:17:32.831Z,16.40
2022-11-24T15:20:10.499Z,16.33
2022-11-24T15:22:42.192Z,14.43
2022-11-24T15:25:34.955Z,17.90
2022-11-24T15:28:01.812Z,17.83
2022-11-24T15:30:29.294Z,19.90
2022-11-24T15:32:58.108Z,23.40
2022-11-24T15:35:28.469Z,31.88
2022-11-24T15:37:55.241Z,25.50
2022-11-24T15:40:22.074Z,26.02
2022-11-24T15:42:54.033Z,34.67
2022-11-24T15:45:23.170Z,32.50
2022-11-24T15:47:50.163Z,25.42
2022-11-24T15:50:17.029Z,28.42
2022-11-24T15:52:45.051Z,20.30
2022-11-24T15:55:22.292Z,21.23
2022-11-24T15:57:49.714Z,30.05
2022-11-24T16:00:19.551Z,29.50
2022-11-24T16:02:46.424Z,33.95
2022-11-24T16:05:13.957Z,39.75
2022-11-24T16:07:40.978Z,40.35
2022-11-24T16:10:24.618Z,38.65
2022-11-24T16:12:51.336Z,31.10
2022-11-24T16:15:18.024Z,30.45
2022-11-24T16:17:44.724Z,31.02
2022-11-24T16:20:11.560Z,26.73
2022-11-24T16:22:38.293Z,26.73
2022-11-24T16:25:05.709Z,24.55
2022-11-24T16:29:59.003Z,19.83
2022-11-24T16:32:25.705Z,18.13
2022-11-24T16:34:52.392Z,18.88
2022-11-24T16:37:20.945Z,19.75
2022-11-24T16:39:50.157Z,23.55
2022-11-24T16:42:17.438Z,22.80
2022-11-24T16:44:44.104Z,25.17
2022-11-24T16:47:12.796Z,23.55
2022-11-24T16:49:39.649Z,39.17
2022-11-24T16:52:06.680Z,45.67
2022-11-24T16:54:33.667Z,45.85
2022-11-24T16:57:00.437Z,26.55
2022-11-24T16:59:27.079Z,17.05
2022-11-24T17:01:54.073Z,30.42
2022-11-24T17:04:20.903Z,34.50
2022-11-24T17:06:47.556Z,34.75
2022-11-24T17:09:14.224Z,36.88
2022-11-24T17:11:41.219Z,38.47
2022-11-24T17:14:09.411Z,44.15
2022-11-24T17:16:37.587Z,48.53
2022-11-24T17:19:05.504Z,47.35
2022-11-24T17:21:32.897Z,48.50
2022-11-24T17:26:28.219Z,47.37
2022-11-24T17:28:56.032Z,60.30
2022-11-24T17:31:41.030Z,59.88
2022-11-24T17:34:09.488Z,44.88
2022-11-24T17:36:36.243Z,43.00
2022-11-24T17:39:04.973Z,40.83
2022-11-24T17:41:32.681Z,43.08
2022-11-24T17:43:59.595Z,33.35
2022-11-24T17:46:27.860Z,51.58
2022-11-24T17:48:54.931Z,35.00
2022-11-24T17:51:23.455Z,23.75
2022-11-24T17:53:52.156Z,20.80
2022-11-24T17:56:24.741Z,24.10
2022-11-24T17:58:59.464Z,29.05
2022-11-24T18:01:28.447Z,29.98
2022-11-24T18:03:57.888Z,25.73
2022-11-24T18:06:28.639Z,23.77
2022-11-24T18:08:57.332Z,35.05
2022-11-24T18:11:30.889Z,29.77
2022-11-24T18:14:01.602Z,25.27
2022-11-24T18:16:30.972Z,32.17
2022-11-24T18:19:14.637Z,29.73
2022-11-24T18:21:43.521Z,21.15
2022-11-24T18:24:11.780Z,12.45
2022-11-24T18:26:39.916Z,21.35
2022-11-24T18:29:07.159Z,16.90
2022-11-24T18:31:35.630Z,28.10
2022-11-24T18:34:04.199Z,27.75
2022-11-24T18:36:31.761Z,21.95
2022-11-24T18:39:02.826Z,14.23
2022-11-24T18:41:29.511Z,8.77
2022-11-24T18:43:56.229Z,15.00
2022-11-24T18:46:22.986Z,8.32
2022-11-24T18:48:51.925Z,13.30
2022-11-24T18:51:18.858Z,11.02
2022-11-24T18:53:46.588Z,12.15
2022-11-24T18:56:15.915Z,13.05
2022-11-24T18:58:43.245Z,19.35
2022-11-24T19:01:16.149Z,12.55
2022-11-24T19:03:48.620Z,16.35
2022-11-24T19:06:36.181Z,10.80
2022-11-24T19:09:06.594Z,17.50
2022-11-24T19:11:37.030Z,12.40
2022-11-24T19:14:06.131Z,10.95
2022-11-24T19:16:33.349Z,12.80
2022-11-24T19:19:01.616Z,15.35
2022-11-24T19:21:32.810Z,27.92
2022-11-24T19:24:04.507Z,18.05
2022-11-24T19:26:32.471Z,15.85
2022-11-24T19:28:59.150Z,14.68
2022-11-24T19:31:25.889Z,16.40
2022-11-24T19:33:54.527Z,7.65
2022-11-24T19:36:22.112Z,20.17
2022-11-24T19:38:54.277Z,10.85
2022-11-24T19:41:23.822Z,9.52
2022-11-24T19:43:53.308Z,9.25
2022-11-24T19:46:20.628Z,12.18
2022-11-24T19:51:22.579Z,18.67
2022-11-24T19:53:49.309Z,16.60
2022-11-24T19:56:24.117Z,22.92
2022-11-24T19:58:52.106Z,29.17
2022-11-24T20:01:26.602Z,28.75
2022-11-24T20:03:58.892Z,22.75
2022-11-24T20:06:28.026Z,25.35
2022-11-24T20:08:55.128Z,27.70
2022-11-24T20:11:22.386Z,26.63
2022-11-24T20:13:50.059Z,28.55
2022-11-24T20:16:19.744Z,29.42
2022-11-24T20:18:47.622Z,35.70
2022-11-24T20:21:18.088Z,32.60
2022-11-24T20:23:46.735Z,35.70
2022-11-24T20:26:16.378Z,35.42
2022-11-24T20:28:43.445Z,24.73
2022-11-24T20:31:13.523Z,23.60
2022-11-24T20:33:41.140Z,12.77
2022-11-24T20:36:13.298Z,12.80
2022-11-24T20:38:41.259Z,11.60
2022-11-24T20:41:16.732Z,6.57
2022-11-24T20:43:44.851Z,8.85
2022-11-24T20:46:23.947Z,17.58
2022-11-24T20:48:51.313Z,17.08
2022-11-24T20:53:49.744Z,16.23
2022-11-24T20:56:19.370Z,18.45
2022-11-24T20:58:46.649Z,14.95
2022-11-24T21:01:35.579Z,17.55
2022-11-24T21:04:03.136Z,19.13
2022-11-24T21:06:30.640Z,18.50
2022-11-24T21:09:03.501Z,45.05
2022-11-24T21:11:31.360Z,30.02
2022-11-24T21:13:58.517Z,11.00
2022-11-24T21:16:31.198Z,8.50
2022-11-24T21:19:01.095Z,8.00
2022-11-24T21:21:33.928Z,7.55
2022-11-24T21:24:05.632Z,8.50
2022-11-24T21:26:36.752Z,7.68
2022-11-24T21:29:04.431Z,12.45
2022-11-24T21:31:31.147Z,9.05
2022-11-24T21:33:57.835Z,12.57
2022-11-24T21:36:26.412Z,14.55
2022-11-24T21:38:55.437Z,12.07
2022-11-24T21:41:23.558Z,13.63
2022-11-24T21:43:51.566Z,13.55
2022-11-24T21:46:18.530Z,13.80
2022-11-24T21:48:45.461Z,15.65
2022-11-24T21:51:16.140Z,15.90
2022-11-24T21:53:43.662Z,13.65
2022-11-24T21:56:16.919Z,12.77
2022-11-24T21:58:45.895Z,14.68
2022-11-24T22:01:14.048Z,10.93
2022-11-24T22:03:40.740Z,13.02
2022-11-24T22:06:07.827Z,17.30
2022-11-24T22:08:34.952Z,12.93
2022-11-24T22:11:04.179Z,11.57
2022-11-24T22:13:31.195Z,11.10
2022-11-24T22:16:13.125Z,8.70
2022-11-24T22:18:41.444Z,11.75
2022-11-24T22:21:14.349Z,11.50
2022-11-24T22:23:41.761Z,12.25
2022-11-24T22:28:36.679Z,9.45
2022-11-24T22:31:08.065Z,9.90
2022-11-24T22:33:35.040Z,9.07
2022-11-24T22:36:02.401Z,6.95
2022-11-24T22:41:08.430Z,8.93
2022-11-24T22:43:36.782Z,13.02
2022-11-24T22:46:18.086Z,16.23
2022-11-24T22:48:46.511Z,8.90
2022-11-24T22:51:15.657Z,6.38
2022-11-24T22:53:50.837Z,6.93
2022-11-24T22:56:18.167Z,7.75
2022-11-24T22:58:45.185Z,7.88
2022-11-24T23:01:22.982Z,7.35
2022-11-24T23:03:50.799Z,7.35
2022-11-24T23:06:32.276Z,8.38
2022-11-24T23:09:00.771Z,10.48
2022-11-24T23:11:37.755Z,8.02
2022-11-24T23:14:07.285Z,9.02
2022-11-24T23:16:34.172Z,10.98
2022-11-24T23:19:00.932Z,8.35
2022-11-24T23:21:30.071Z,4.43
2022-11-24T23:23:58.944Z,8.45
2022-11-24T23:26:34.932Z,7.55
2022-11-24T23:29:02.032Z,8.40
2022-11-24T23:31:29.212Z,9.57
2022-11-24T23:36:26.892Z,10.18
2022-11-24T23:38:54.358Z,9.00
2022-11-24T23:43:52.572Z,13.77
2022-11-24T23:48:51.235Z,15.45
2022-11-24T23:51:20.645Z,18.35
2022-11-24T23:53:47.399Z,18.55
2022-11-24T23:56:19.423Z,20.20
2022-11-24T23:58:46.579Z,20.70
